Time;durP1;ratioP1;P1;durP2;ratioP2;P2;SDS_P1;SDS_P2;PMS_P1;PMS_P2;Temp;Humidity;BMP_temperature;BMP_pressure;BME280_temperature;BME280_humidity;BME280_pressure;Samples;Min_cycle;Max_cycle;Signal;HPM_P1;HPM_P2
2023/03/19 00:01:20;;;;;;;8.05;7.22;;;10.30;99.90;;;;;;5079024;28;20046;-75
2023/03/19 00:03:46;;;;;;;8.02;7.22;;;10.70;99.90;;;;;;5086405;28;20043;-76
2023/03/19 00:06:12;;;;;;;7.72;6.68;;;10.40;99.90;;;;;;5064096;28;20097;-76
2023/03/19 00:08:38;;;;;;;6.68;5.97;;;10.20;99.90;;;;;;5073252;28;20115;-75
2023/03/19 00:11:08;;;;;;;6.20;5.60;;;10.70;99.90;;;;;;5066713;28;20072;-75
2023/03/19 00:13:34;;;;;;;6.40;5.80;;;10.30;99.90;;;;;;5086498;28;20055;-75
2023/03/19 00:16:00;;;;;;;4.78;4.35;;;10.70;99.90;;;;;;5082977;28;20052;-75
2023/03/19 00:18:26;;;;;;;4.35;3.95;;;10.40;99.90;;;;;;5082877;28;20047;-75
2023/03/19 00:20:52;;;;;;;4.18;3.78;;;10.60;99.90;;;;;;5088930;28;20048;-75
2023/03/19 00:23:18;;;;;;;5.53;4.88;;;10.50;99.90;;;;;;5065907;28;20365;-75
2023/03/19 00:25:44;;;;;;;5.82;5.22;;;10.10;99.90;;;;;;5056130;28;20122;-75
2023/03/19 00:28:10;;;;;;;7.20;6.50;;;10.50;99.90;;;;;;5070732;28;20044;-75
2023/03/19 00:30:36;;;;;;;8.80;7.90;;;10.10;99.90;;;;;;5039488;28;20278;-76
2023/03/19 00:33:02;;;;;;;8.38;7.57;;;10.10;99.90;;;;;;5052597;28;20119;-75
2023/03/19 00:35:28;;;;;;;7.07;6.38;;;10.60;99.90;;;;;;5064502;28;20035;-76
2023/03/19 00:37:54;;;;;;;7.65;6.85;;;10.30;99.90;;;;;;5076159;28;20079;-75
2023/03/19 00:40:19;;;;;;;6.82;6.10;;;10.10;99.90;;;;;;5076224;28;20064;-76
2023/03/19 00:42:45;;;;;;;6.82;6.13;;;10.10;99.90;;;;;;5084169;28;20039;-75
2023/03/19 00:45:11;;;;;;;7.38;6.05;;;10.60;99.90;;;;;;5078450;28;20402;-75
2023/03/19 00:47:37;;;;;;;7.30;6.60;;;10.30;99.90;;;;;;5085435;28;20036;-75
2023/03/19 00:50:05;;;;;;;9.02;7.88;;;10.10;99.90;;;;;;5065122;28;20048;-75
2023/03/19 00:52:30;;;;;;;7.38;6.68;;;10.40;99.90;;;;;;5086695;28;20073;-75
2023/03/19 00:54:56;;;;;;;6.63;5.93;;;10.20;99.90;;;;;;5080423;28;20113;-74
2023/03/19 00:57:22;;;;;;;8.05;7.25;;;10.30;99.90;;;;;;5069753;28;20455;-74
2023/03/19 00:59:48;;;;;;;7.53;6.65;;;10.70;99.90;;;;;;5086500;28;20042;-75
2023/03/19 01:02:14;;;;;;;7.45;6.65;;;10.70;99.90;;;;;;5077375;28;20119;-75
2023/03/19 01:04:39;;;;;;;8.38;7.38;;;10.70;99.90;;;;;;5082318;28;20047;-76
2023/03/19 01:07:05;;;;;;;8.48;7.55;;;10.70;99.90;;;;;;5051604;28;20411;-74
2023/03/19 01:09:31;;;;;;;8.38;7.18;;;10.50;99.90;;;;;;5073950;28;20090;-74
2023/03/19 01:11:57;;;;;;;7.78;6.95;;;10.50;99.90;;;;;;5087269;28;20475;-75
2023/03/19 01:14:24;;;;;;;7.80;7.00;;;10.20;99.90;;;;;;5077644;28;20544;-75
2023/03/19 01:16:50;;;;;;;7.28;6.50;;;10.60;99.90;;;;;;5055829;28;20061;-75
2023/03/19 01:19:15;;;;;;;8.52;7.47;;;10.70;99.90;;;;;;5080947;28;20356;-75
2023/03/19 01:21:45;;;;;;;8.32;7.50;;;10.20;99.90;;;;;;5086882;28;20092;-74
2023/03/19 01:24:11;;;;;;;7.72;6.60;;;10.60;99.90;;;;;;5083603;28;20051;-75
2023/03/19 01:26:37;;;;;;;10.48;9.32;;;10.40;99.90;;;;;;5050430;28;20444;-74
2023/03/19 01:29:03;;;;;;;11.85;8.88;;;10.60;99.90;;;;;;5086618;28;20074;-75
2023/03/19 01:31:29;;;;;;;9.40;8.40;;;10.60;99.90;;;;;;5076657;28;20105;-74
2023/03/19 01:33:55;;;;;;;8.75;7.85;;;10.20;99.90;;;;;;5080712;28;20484;-74
2023/03/19 01:36:21;;;;;;;8.32;6.30;;;10.60;99.90;;;;;;5080242;28;20051;-75
2023/03/19 01:38:47;;;;;;;8.45;7.57;;;10.60;99.90;;;;;;5073230;28;20040;-74
2023/03/19 01:41:13;;;;;;;7.00;6.30;;;10.20;99.90;;;;;;5062483;28;20052;-75
2023/03/19 01:43:39;;;;;;;;;;;10.40;99.90;;;;;;5080676;28;20037;-74
2023/03/19 01:46:15;;;;;;;7.32;6.07;;;10.00;99.90;;;;;;5088414;28;20351;-74
2023/03/19 01:48:56;;;;;;;6.57;5.13;;;10.40;99.90;;;;;;5082898;28;20040;-74
2023/03/19 01:51:28;;;;;;;7.07;6.38;;;10.50;99.90;;;;;;5081446;28;20391;-74
2023/03/19 01:53:59;;;;;;;8.95;6.85;;;10.50;99.90;;;;;;5061739;28;20040;-74
2023/03/19 01:56:35;;;;;;;7.65;6.63;;;10.50;99.90;;;;;;5072647;28;20416;-75
2023/03/19 01:59:14;;;;;;;7.45;6.68;;;10.20;99.90;;;;;;5057859;28;20055;-75
2023/03/19 02:01:48;;;;;;;7.35;6.32;;;10.60;99.90;;;;;;5079303;28;20037;-75
2023/03/19 02:04:14;;;;;;;8.63;6.85;;;10.50;99.90;;;;;;5062115;28;20080;-75
2023/03/19 02:06:41;;;;;;;7.32;6.63;;;10.50;99.90;;;;;;5074565;28;20456;-75
2023/03/19 02:09:08;;;;;;;10.60;7.90;;;10.10;99.90;;;;;;5074042;28;20040;-75
2023/03/19 02:11:36;;;;;;;8.38;6.95;;;10.60;99.90;;;;;;5077936;28;20056;-74
2023/03/19 02:14:01;;;;;;;7.05;6.30;;;10.30;99.90;;;;;;5071717;28;20052;-75
2023/03/19 02:16:27;;;;;;;7.07;6.10;;;10.70;99.90;;;;;;5079596;28;20055;-74
2023/03/19 02:18:55;;;;;;;5.72;5.07;;;10.60;99.90;;;;;;5081572;28;20058;-74
2023/03/19 02:21:21;;;;;;;4.90;4.43;;;10.10;99.90;;;;;;5084837;28;20040;-74
2023/03/19 02:24:12;;;;;;;5.00;4.50;;;10.10;99.90;;;;;;5073775;28;20499;-74
2023/03/19 02:26:40;;;;;;;5.65;4.80;;;10.70;99.90;;;;;;5075508;28;20381;-74
2023/03/19 02:29:06;;;;;;;4.03;3.60;;;10.50;99.90;;;;;;5089323;28;20046;-75
2023/03/19 02:31:32;;;;;;;3.92;3.35;;;10.10;99.90;;;;;;5080543;28;20036;-75
2023/03/19 02:34:00;;;;;;;4.07;3.40;;;10.40;99.90;;;;;;5082818;28;20032;-74
2023/03/19 02:36:36;;;;;;;5.25;4.57;;;10.60;99.90;;;;;;5077110;28;20040;-75
2023/03/19 02:39:06;;;;;;;6.03;4.68;;;10.10;99.90;;;;;;5067643;28;20376;-75
2023/03/19 02:41:33;;;;;;;6.80;5.57;;;10.50;99.90;;;;;;5076829;28;20044;-75
2023/03/19 02:44:02;;;;;;;5.30;4.78;;;10.20;99.90;;;;;;5078286;28;20055;-75
2023/03/19 02:46:28;;;;;;;6.95;5.20;;;10.00;99.90;;;;;;5087636;28;20032;-75
2023/03/19 02:48:53;;;;;;;5.10;4.57;;;10.60;99.90;;;;;;5076704;28;20364;-75
2023/03/19 02:51:19;;;;;;;5.18;4.25;;;10.20;99.90;;;;;;5065127;28;20499;-75
2023/03/19 02:53:45;;;;;;;5.35;4.65;;;10.10;99.90;;;;;;5075933;28;20043;-74
2023/03/19 02:56:11;;;;;;;4.07;3.67;;;10.40;99.90;;;;;;5080966;28;20040;-74
2023/03/19 02:58:37;;;;;;;4.03;3.63;;;10.20;99.90;;;;;;5088340;28;20047;-74
2023/03/19 03:01:03;;;;;;;4.72;4.22;;;10.50;99.90;;;;;;5066148;28;20040;-74
2023/03/19 03:03:29;;;;;;;4.28;3.63;;;10.50;99.90;;;;;;5080778;28;20510;-74
2023/03/19 03:05:55;;;;;;;4.70;4.05;;;10.30;99.90;;;;;;5079938;28;20040;-74
2023/03/19 03:08:21;;;;;;;6.05;4.70;;;10.10;99.90;;;;;;5081170;28;20373;-74
2023/03/19 03:10:46;;;;;;;6.55;4.95;;;10.50;99.90;;;;;;5088236;28;20043;-74
2023/03/19 03:13:12;;;;;;;4.95;4.40;;;10.60;99.90;;;;;;5066455;28;20059;-74
2023/03/19 03:15:38;;;;;;;5.03;4.53;;;10.30;99.90;;;;;;5086740;28;20533;-74
2023/03/19 03:18:04;;;;;;;6.68;4.43;;;10.60;99.90;;;;;;5058323;28;20056;-75
2023/03/19 03:20:30;;;;;;;5.28;4.35;;;10.60;99.90;;;;;;5070320;28;20052;-75
2023/03/19 03:22:56;;;;;;;3.83;3.40;;;10.60;99.90;;;;;;5072528;28;20535;-75
2023/03/19 03:25:22;;;;;;;4.82;3.95;;;10.50;99.90;;;;;;5053120;28;20036;-75
2023/03/19 03:27:48;;;;;;;4.53;3.70;;;10.50;99.90;;;;;;5073585;28;20028;-75
2023/03/19 03:30:15;;;;;;;3.97;3.40;;;10.40;99.90;;;;;;5074995;28;20407;-75
2023/03/19 03:32:41;;;;;;;4.05;3.40;;;10.40;99.90;;;;;;5056930;28;20048;-75
2023/03/19 03:35:07;;;;;;;;;;;10.20;99.90;;;;;;5071217;28;20068;-75
2023/03/19 03:37:33;;;;;;;4.63;3.70;;;10.00;99.90;;;;;;5078676;28;19926;-75
2023/03/19 03:39:58;;;;;;;4.15;3.20;;;10.00;99.90;;;;;;5076642;28;20398;-76
2023/03/19 03:42:24;;;;;;;4.50;3.42;;;10.60;99.90;;;;;;5086093;28;20149;-76
2023/03/19 03:44:50;;;;;;;5.13;3.25;;;10.50;99.90;;;;;;5086434;28;20059;-76
2023/03/19 03:47:16;;;;;;;4.18;3.30;;;10.20;99.90;;;;;;5064529;28;20135;-75
2023/03/19 03:49:42;;;;;;;4.82;3.08;;;10.60;99.90;;;;;;5071706;28;20123;-75
2023/03/19 03:52:08;;;;;;;3.67;3.10;;;10.00;99.90;;;;;;5071539;28;20049;-74
2023/03/19 03:54:34;;;;;;;3.90;3.05;;;10.00;99.90;;;;;;5084047;28;20118;-75
2023/03/19 03:57:00;;;;;;;4.13;3.28;;;10.20;99.90;;;;;;5088445;28;20575;-75
2023/03/19 03:59:26;;;;;;;3.88;2.88;;;10.60;99.90;;;;;;5064373;28;20768;-75
2023/03/19 04:01:52;;;;;;;2.80;2.50;;;10.50;99.90;;;;;;5074173;28;20052;-73
2023/03/19 04:04:19;;;;;;;3.17;2.50;;;10.60;99.90;;;;;;5079247;28;20050;-75
2023/03/19 04:06:45;;;;;;;2.45;2.00;;;10.50;99.90;;;;;;5067654;28;20125;-74
2023/03/19 04:09:10;;;;;;;;;;;10.00;99.90;;;;;;5081138;28;20336;-74
2023/03/19 04:11:37;;;;;;;3.08;2.10;;;10.40;99.90;;;;;;5061771;28;19930;-74
2023/03/19 04:14:03;;;;;;;;;;;10.50;99.90;;;;;;5082033;28;20196;-74
2023/03/19 04:16:28;;;;;;;5.47;2.63;;;10.00;99.90;;;;;;5079908;28;20031;-75
2023/03/19 04:18:54;;;;;;;3.00;2.50;;;10.50;99.90;;;;;;5065446;28;20052;-75
2023/03/19 04:21:20;;;;;;;3.08;2.22;;;10.00;99.90;;;;;;5082146;28;20405;-75
2023/03/19 04:23:46;;;;;;;2.72;2.33;;;10.10;99.90;;;;;;5080233;28;20479;-75
2023/03/19 04:26:12;;;;;;;3.00;2.70;;;10.00;99.90;;;;;;5084314;28;20040;-74
2023/03/19 04:28:37;;;;;;;4.57;2.78;;;10.50;99.90;;;;;;5082384;28;20169;-74
2023/03/19 04:31:06;;;;;;;3.90;2.67;;;10.50;99.90;;;;;;5088965;28;20043;-74
2023/03/19 04:33:32;;;;;;;2.55;2.17;;;10.60;99.90;;;;;;5077846;28;20059;-75
2023/03/19 04:35:58;;;;;;;2.20;2.00;;;10.00;99.90;;;;;;5071220;28;20036;-75
2023/03/19 04:38:25;;;;;;;2.78;2.20;;;10.00;99.90;;;;;;5087609;28;20145;-75
2023/03/19 04:40:52;;;;;;;4.85;2.55;;;9.90;99.90;;;;;;5084064;28;20534;-74
2023/03/19 04:43:17;;;;;;;3.15;2.70;;;9.90;99.90;;;;;;5086682;28;20553;-75
2023/03/19 04:45:44;;;;;;;2.88;2.58;;;10.60;99.90;;;;;;5053413;28;20063;-75
2023/03/19 04:48:09;;;;;;;3.53;3.08;;;10.70;99.90;;;;;;5080911;28;20043;-74
2023/03/19 04:50:36;;;;;;;3.45;2.65;;;10.00;99.90;;;;;;5078407;28;20406;-74
2023/03/19 04:53:02;;;;;;;3.85;2.60;;;10.50;99.90;;;;;;5075839;28;20033;-74
2023/03/19 04:55:28;;;;;;;2.65;2.30;;;10.40;99.90;;;;;;5077608;28;20479;-75
2023/03/19 04:57:53;;;;;;;2.95;2.30;;;10.00;99.90;;;;;;5082974;28;20044;-76
2023/03/19 05:00:20;;;;;;;2.35;1.88;;;10.20;99.90;;;;;;5074562;28;20491;-76
2023/03/19 05:02:46;;;;;;;2.30;1.85;;;10.60;99.90;;;;;;5076092;28;20051;-75
2023/03/19 05:05:12;;;;;;;;;;;10.60;99.90;;;;;;5075612;28;20051;-74
2023/03/19 05:07:39;;;;;;;2.13;1.90;;;10.60;99.90;;;;;;5076154;28;19920;-75
2023/03/19 05:10:06;;;;;;;2.95;2.40;;;10.60;99.90;;;;;;5079834;28;20102;-74
2023/03/19 05:12:32;;;;;;;4.28;3.28;;;10.00;99.90;;;;;;5073877;28;20045;-75
2023/03/19 05:14:58;;;;;;;5.07;3.33;;;10.50;99.90;;;;;;5077247;28;20545;-74
2023/03/19 05:17:24;;;;;;;5.03;3.30;;;10.10;99.90;;;;;;5071800;28;20037;-74
2023/03/19 05:19:51;;;;;;;3.38;2.88;;;10.40;99.90;;;;;;5076288;28;20121;-75
2023/03/19 05:22:18;;;;;;;3.97;2.80;;;10.40;99.90;;;;;;5075889;28;20490;-73
2023/03/19 05:24:44;;;;;;;3.40;2.70;;;10.30;99.90;;;;;;5059032;28;20729;-73
2023/03/19 05:27:11;;;;;;;3.03;2.70;;;10.20;99.90;;;;;;5076860;28;20053;-75
2023/03/19 05:29:36;;;;;;;;;;;10.30;99.90;;;;;;5075576;28;20484;-74
2023/03/19 05:32:03;;;;;;;2.90;2.55;;;10.20;99.90;;;;;;5074983;28;19926;-74
2023/03/19 05:34:29;;;;;;;2.05;1.83;;;10.30;99.90;;;;;;5063959;28;20100;-75
2023/03/19 05:36:54;;;;;;;2.10;1.90;;;10.30;99.90;;;;;;5082154;28;20052;-75
2023/03/19 05:39:20;;;;;;;2.03;1.80;;;10.10;99.90;;;;;;5063473;28;20048;-75
2023/03/19 05:41:47;;;;;;;2.10;1.90;;;10.30;99.90;;;;;;5066435;28;20052;-75
2023/03/19 05:44:13;;;;;;;3.10;2.15;;;10.10;99.90;;;;;;5083503;28;20040;-75
2023/03/19 05:46:38;;;;;;;1.65;1.52;;;9.90;99.90;;;;;;5079059;28;20119;-75
2023/03/19 05:49:04;;;;;;;1.77;1.60;;;9.60;99.90;;;;;;5072441;28;20040;-76
2023/03/19 05:51:30;;;;;;;2.25;1.70;;;9.20;99.90;;;;;;5084306;28;20047;-73
2023/03/19 05:53:56;;;;;;;1.95;1.73;;;9.30;99.90;;;;;;5080316;28;20407;-74
2023/03/19 05:56:22;;;;;;;1.65;1.25;;;9.80;99.90;;;;;;5089012;28;20035;-73
2023/03/19 05:58:48;;;;;;;1.85;1.40;;;9.80;99.90;;;;;;5083573;28;20044;-76
2023/03/19 06:01:13;;;;;;;1.70;1.58;;;9.40;99.90;;;;;;5078779;28;20053;-76
2023/03/19 06:03:39;;;;;;;1.33;1.23;;;9.70;99.90;;;;;;5063430;28;20040;-76
2023/03/19 06:06:06;;;;;;;2.22;1.60;;;8.90;99.90;;;;;;5080247;28;20035;-77
2023/03/19 06:08:31;;;;;;;;;;;9.40;99.90;;;;;;5080253;28;20131;-75
2023/03/19 06:10:57;;;;;;;2.42;1.80;;;9.40;99.90;;;;;;5072932;28;20065;-76
2023/03/19 06:13:24;;;;;;;2.13;1.85;;;9.00;99.90;;;;;;5054514;28;20515;-76
2023/03/19 06:15:50;;;;;;;2.63;2.20;;;8.80;99.90;;;;;;5077469;28;20413;-75
2023/03/19 06:18:17;;;;;;;3.08;2.40;;;9.00;99.90;;;;;;5066273;28;20352;-76
2023/03/19 06:20:43;;;;;;;4.25;2.63;;;9.70;99.90;;;;;;5080173;28;20040;-75
2023/03/19 06:23:09;;;;;;;2.63;2.40;;;8.90;99.90;;;;;;5078950;28;20037;-69
2023/03/19 06:25:35;;;;;;;;;;;9.80;99.90;;;;;;5080653;28;20048;-68
2023/03/19 06:28:01;;;;;;;5.30;3.25;;;9.80;99.90;;;;;;5073832;28;19986;-69
2023/03/19 06:30:27;;;;;;;4.22;3.30;;;9.80;99.90;;;;;;5058609;28;20044;-68
2023/03/19 06:32:52;;;;;;;3.47;2.75;;;9.00;99.90;;;;;;5056184;28;20043;-68
2023/03/19 06:35:18;;;;;;;4.07;3.20;;;9.80;99.90;;;;;;5059615;28;20467;-67
2023/03/19 06:37:43;;;;;;;5.85;3.83;;;9.30;99.90;;;;;;5089247;28;20487;-68
2023/03/19 06:40:10;;;;;;;5.00;3.35;;;9.60;99.90;;;;;;5056430;28;20113;-70
2023/03/19 06:42:36;;;;;;;4.38;3.70;;;9.10;99.90;;;;;;5059319;28;20055;-70
2023/03/19 06:45:02;;;;;;;3.40;3.10;;;9.90;99.90;;;;;;5056534;28;20048;-69
2023/03/19 06:47:28;;;;;;;;;;;9.80;99.90;;;;;;5080227;28;20039;-69
2023/03/19 06:49:53;;;;;;;3.45;2.75;;;9.80;99.90;;;;;;5072757;28;20007;-69
2023/03/19 06:52:19;;;;;;;3.72;3.33;;;9.50;99.90;;;;;;5074216;28;20066;-69
2023/03/19 06:54:45;;;;;;;3.90;3.40;;;9.10;99.90;;;;;;5078789;28;20039;-69
2023/03/19 06:57:11;;;;;;;3.78;3.05;;;9.80;99.90;;;;;;5074990;28;20048;-69
2023/03/19 06:59:36;;;;;;;3.47;3.17;;;9.10;99.90;;;;;;5075027;28;20133;-69
2023/03/19 07:02:02;;;;;;;2.90;2.53;;;9.70;99.90;;;;;;5079162;28;20039;-68
2023/03/19 07:04:29;;;;;;;4.07;3.13;;;9.90;99.90;;;;;;5080786;28;20039;-70
2023/03/19 07:06:54;;;;;;;3.13;2.83;;;9.20;99.90;;;;;;5062008;28;20052;-69
2023/03/19 07:09:20;;;;;;;3.83;3.47;;;9.20;99.90;;;;;;5075228;28;20056;-70
2023/03/19 07:11:46;;;;;;;4.47;3.42;;;9.20;99.90;;;;;;5074721;28;20449;-74
2023/03/19 07:14:12;;;;;;;3.40;2.92;;;10.10;99.90;;;;;;5065995;28;20043;-69
2023/03/19 07:16:37;;;;;;;3.75;3.15;;;9.40;99.90;;;;;;5084815;28;20043;-68
2023/03/19 07:19:03;;;;;;;4.80;3.60;;;10.10;99.90;;;;;;5082888;28;20161;-68
2023/03/19 07:21:29;;;;;;;4.32;3.63;;;9.70;99.90;;;;;;5050237;28;20037;-68
2023/03/19 07:23:55;;;;;;;4.20;3.60;;;10.40;99.90;;;;;;5082608;28;20048;-67
2023/03/19 07:26:20;;;;;;;4.13;3.58;;;9.90;99.90;;;;;;5079716;28;20047;-69
2023/03/19 07:28:47;;;;;;;4.35;3.47;;;10.00;99.90;;;;;;5082322;28;20048;-69
2023/03/19 07:31:12;;;;;;;;;;;10.50;99.90;;;;;;5073726;28;20072;-69
2023/03/19 07:33:38;;;;;;;6.00;4.43;;;10.50;99.90;;;;;;5070574;28;19980;-69
2023/03/19 07:36:04;;;;;;;4.95;3.95;;;10.40;99.90;;;;;;5079974;28;20461;-70
2023/03/19 07:38:30;;;;;;;5.10;4.60;;;10.90;99.90;;;;;;5081823;28;20048;-69
2023/03/19 07:40:56;;;;;;;5.90;4.80;;;11.00;99.90;;;;;;5075862;28;20063;-69
2023/03/19 07:43:22;;;;;;;4.68;4.15;;;10.70;99.90;;;;;;5054402;28;20234;-69
2023/03/19 07:45:47;;;;;;;4.50;4.00;;;11.00;99.90;;;;;;5080855;28;20349;-69
2023/03/19 07:48:13;;;;;;;5.65;4.75;;;11.10;99.90;;;;;;5075775;28;20090;-71
2023/03/19 07:50:39;;;;;;;5.35;4.85;;;10.80;99.90;;;;;;5059407;28;20040;-70
2023/03/19 07:53:05;;;;;;;6.68;4.85;;;11.10;99.90;;;;;;5087865;28;20044;-70
2023/03/19 07:55:30;;;;;;;5.63;5.03;;;11.10;99.90;;;;;;5059606;28;20044;-70
2023/03/19 07:57:56;;;;;;;6.82;6.13;;;11.10;99.90;;;;;;5088967;28;20047;-70
2023/03/19 08:00:22;;;;;;;6.90;5.80;;;11.20;99.90;;;;;;5074303;28;20043;-70
2023/03/19 08:02:47;;;;;;;10.45;7.70;;;11.10;99.90;;;;;;5077199;28;20032;-70
2023/03/19 08:05:13;;;;;;;10.45;8.68;;;11.30;99.90;;;;;;5066852;28;20051;-70
2023/03/19 08:07:39;;;;;;;10.38;9.27;;;11.30;99.90;;;;;;5081727;28;20380;-69
2023/03/19 08:10:06;;;;;;;9.93;8.48;;;11.30;99.90;;;;;;5075063;28;20082;-70
2023/03/19 08:12:38;;;;;;;11.20;8.90;;;11.10;99.90;;;;;;5078124;28;20051;-69
2023/03/19 08:15:04;;;;;;;12.48;9.65;;;11.10;99.90;;;;;;5065828;28;20040;-70
2023/03/19 08:17:33;;;;;;;;;;;11.20;99.90;;;;;;5089072;28;20077;-69
2023/03/19 08:19:58;;;;;;;13.90;10.43;;;11.10;99.90;;;;;;5089184;28;19920;-69
2023/03/19 08:22:24;;;;;;;11.07;9.32;;;11.20;99.90;;;;;;5063530;28;20039;-70
2023/03/19 08:24:50;;;;;;;14.40;11.23;;;11.40;99.90;;;;;;5071297;28;20048;-69
2023/03/19 08:27:16;;;;;;;14.68;11.27;;;11.50;99.90;;;;;;5085490;28;20471;-69
2023/03/19 08:29:42;;;;;;;14.18;11.23;;;11.60;99.90;;;;;;5069922;28;20110;-70
2023/03/19 08:32:07;;;;;;;11.80;10.60;;;11.80;99.90;;;;;;5070966;28;20044;-69
2023/03/19 08:34:33;;;;;;;11.90;10.63;;;11.80;99.90;;;;;;5089314;28;20044;-69
2023/03/19 08:36:59;;;;;;;14.27;12.45;;;11.70;99.90;;;;;;5083111;28;20082;-70
2023/03/19 08:39:25;;;;;;;13.38;11.60;;;11.60;99.90;;;;;;5072677;28;20123;-70
2023/03/19 08:41:50;;;;;;;16.83;11.57;;;11.60;99.90;;;;;;5084937;28;20131;-69
2023/03/19 08:44:16;;;;;;;12.43;11.13;;;11.50;99.90;;;;;;5082544;28;20499;-69
2023/03/19 08:46:42;;;;;;;11.10;9.38;;;11.40;99.90;;;;;;5088455;28;20561;-69
2023/03/19 08:49:07;;;;;;;11.40;10.10;;;11.50;99.90;;;;;;5071613;28;20112;-69
2023/03/19 08:51:33;;;;;;;11.32;10.13;;;11.50;99.90;;;;;;5041378;28;20392;-68
2023/03/19 08:53:59;;;;;;;12.80;10.30;;;11.50;99.90;;;;;;5087192;28;20040;-70
2023/03/19 08:56:24;;;;;;;12.57;10.43;;;11.60;99.90;;;;;;5089096;28;20043;-70
2023/03/19 08:58:50;;;;;;;11.18;9.27;;;11.60;99.90;;;;;;5084415;28;20406;-69
2023/03/19 09:01:16;;;;;;;11.05;9.73;;;11.60;99.90;;;;;;5086926;28;20047;-69
2023/03/19 09:03:43;;;;;;;11.32;9.52;;;11.70;99.90;;;;;;5078203;28;20040;-70
2023/03/19 09:06:11;;;;;;;11.20;9.50;;;11.80;99.90;;;;;;5072191;28;20372;-69
2023/03/19 09:08:37;;;;;;;9.55;8.57;;;11.80;99.90;;;;;;5074506;28;20125;-70
2023/03/19 09:11:04;;;;;;;9.95;8.95;;;12.00;99.90;;;;;;5067315;28;20044;-70
2023/03/19 09:13:30;;;;;;;11.32;9.60;;;12.00;99.90;;;;;;5088315;28;20048;-70
2023/03/19 09:15:56;;;;;;;;;;;12.00;99.90;;;;;;5082765;28;20151;-70
2023/03/19 09:18:24;;;;;;;11.18;9.30;;;12.00;99.90;;;;;;5071971;28;20003;-70
2023/03/19 09:20:51;;;;;;;9.68;8.68;;;12.00;99.90;;;;;;5086586;28;20450;-70
2023/03/19 09:23:17;;;;;;;9.40;8.10;;;12.00;99.90;;;;;;5085657;28;20518;-69
2023/03/19 09:25:43;;;;;;;11.20;8.30;;;12.10;99.90;;;;;;5071080;28;20570;-69
2023/03/19 09:28:08;;;;;;;10.18;8.05;;;12.10;99.90;;;;;;5081574;28;20123;-70
2023/03/19 09:30:34;;;;;;;7.78;6.97;;;12.10;99.90;;;;;;5069317;28;20150;-69
2023/03/19 09:33:00;;;;;;;7.68;6.88;;;12.10;99.90;;;;;;5086116;28;20078;-70
2023/03/19 09:35:30;;;;;;;8.23;7.38;;;12.00;99.90;;;;;;5088203;28;20082;-70
2023/03/19 09:37:56;;;;;;;7.38;6.60;;;12.00;99.90;;;;;;5070488;28;20048;-69
2023/03/19 09:40:26;;;;;;;8.60;7.70;;;11.90;99.90;;;;;;5051741;28;20538;-69
2023/03/19 09:43:08;;;;;;;9.10;7.72;;;11.80;99.90;;;;;;5080307;28;20530;-69
2023/03/19 09:45:34;;;;;;;8.13;7.32;;;11.90;99.90;;;;;;5068215;28;20131;-68
2023/03/19 09:48:17;;;;;;;8.52;7.57;;;12.10;99.90;;;;;;5082013;28;20116;-68
2023/03/19 09:50:45;;;;;;;8.88;7.97;;;12.10;99.90;;;;;;5092192;28;20047;-68
2023/03/19 09:54:00;;;;;;;9.10;7.90;;;12.20;99.90;;;;;;5087910;28;20048;-68
2023/03/19 09:56:26;;;;;;;8.13;7.32;;;12.30;99.90;;;;;;5087298;28;20052;-69
2023/03/19 09:58:52;;;;;;;8.48;7.57;;;12.30;99.90;;;;;;5080339;28;20048;-69
2023/03/19 10:01:48;;;;;;;8.48;7.57;;;12.30;99.90;;;;;;5073722;28;20066;-69
2023/03/19 10:04:29;;;;;;;8.48;7.18;;;12.20;99.90;;;;;;5074213;28;20106;-69
2023/03/19 10:07:18;;;;;;;8.90;8.00;;;12.20;99.90;;;;;;5057159;28;20071;-69
2023/03/19 10:10:15;;;;;;;8.48;7.55;;;12.10;99.90;;;;;;5076382;28;20045;-69
2023/03/19 10:13:01;;;;;;;9.48;8.32;;;12.10;99.90;;;;;;5080291;28;20072;-68
2023/03/19 10:15:36;;;;;;;8.18;7.05;;;12.10;99.90;;;;;;5086716;28;20043;-68
2023/03/19 10:18:14;;;;;;;8.57;7.38;;;12.20;99.90;;;;;;5091633;28;20364;-69
2023/03/19 10:20:55;;;;;;;7.68;6.88;;;12.10;99.90;;;;;;5088603;28;20040;-69
2023/03/19 10:23:36;;;;;;;9.20;7.30;;;12.20;99.90;;;;;;5086883;28;20048;-69
2023/03/19 10:26:04;;;;;;;10.10;8.18;;;12.10;99.90;;;;;;5080570;28;20040;-69
2023/03/19 10:28:30;;;;;;;10.27;8.27;;;12.00;99.90;;;;;;5081038;28;20044;-69
2023/03/19 10:31:26;;;;;;;10.20;8.57;;;12.10;99.90;;;;;;5091814;28;20047;-69
2023/03/19 10:34:09;;;;;;;8.88;7.68;;;12.10;99.90;;;;;;5055298;28;20076;-69
2023/03/19 10:36:36;;;;;;;8.40;7.43;;;12.10;99.90;;;;;;5079316;28;20494;-68
2023/03/19 10:39:05;;;;;;;8.57;7.68;;;12.10;99.90;;;;;;5079942;28;20461;-70
2023/03/19 10:41:41;;;;;;;8.52;7.55;;;12.00;99.90;;;;;;5077684;28;20057;-70
2023/03/19 10:44:33;;;;;;;12.57;8.53;;;12.00;99.90;;;;;;5084044;28;20071;-68
2023/03/19 10:47:12;;;;;;;9.35;8.15;;;12.00;99.90;;;;;;5066957;28;20305;-68
2023/03/19 10:49:38;;;;;;;8.73;7.75;;;12.10;99.90;;;;;;5075518;28;20047;-70
2023/03/19 10:52:05;;;;;;;8.13;6.82;;;12.10;99.90;;;;;;5084843;28;20044;-69
2023/03/19 10:54:31;;;;;;;7.20;6.03;;;12.20;99.90;;;;;;5086529;28;20144;-69
2023/03/19 10:56:58;;;;;;;8.82;7.43;;;12.50;99.90;;;;;;5078404;28;20226;-69
2023/03/19 10:59:35;;;;;;;8.80;7.90;;;12.40;99.90;;;;;;5086583;28;20471;-69
2023/03/19 11:02:15;;;;;;;9.40;8.43;;;12.30;99.90;;;;;;5077869;28;20052;-69
2023/03/19 11:04:41;;;;;;;11.23;8.65;;;12.20;99.90;;;;;;5082793;28;20029;-70
2023/03/19 11:07:12;;;;;;;10.32;9.23;;;12.30;99.90;;;;;;5085959;28;20511;-70
2023/03/19 11:09:48;;;;;;;10.02;8.65;;;12.20;99.90;;;;;;5073355;28;20040;-71
2023/03/19 11:12:25;;;;;;;11.32;8.88;;;12.10;99.90;;;;;;5078625;28;20137;-71
2023/03/19 11:14:52;;;;;;;10.75;9.25;;;11.90;99.90;;;;;;5098737;28;20131;-71
2023/03/19 11:17:42;;;;;;;11.18;9.15;;;11.70;99.90;;;;;;5065926;28;20198;-70
2023/03/19 11:20:14;;;;;;;9.02;8.13;;;11.70;99.90;;;;;;5074086;28;20060;-71
2023/03/19 11:22:41;;;;;;;11.18;9.98;;;11.70;99.90;;;;;;5079590;28;20074;-71
2023/03/19 11:25:27;;;;;;;10.05;8.95;;;11.70;99.90;;;;;;5073662;28;20124;-69
2023/03/19 11:28:11;;;;;;;10.57;8.77;;;11.60;99.90;;;;;;5051839;28;20052;-70
2023/03/19 11:31:07;;;;;;;11.13;9.23;;;11.70;99.90;;;;;;5078136;28;20044;-69
2023/03/19 11:33:53;;;;;;;10.88;9.60;;;11.70;99.90;;;;;;5076025;28;20364;-69
2023/03/19 11:36:40;;;;;;;11.55;9.27;;;11.60;99.90;;;;;;5072056;28;20044;-69
2023/03/19 11:39:15;;;;;;;10.48;9.35;;;11.80;99.90;;;;;;5076598;28;20130;-70
2023/03/19 11:42:19;;;;;;;9.68;8.68;;;11.80;99.90;;;;;;5085943;28;20048;-70
2023/03/19 11:44:55;;;;;;;11.82;10.10;;;11.90;99.90;;;;;;5052238;28;20044;-70
2023/03/19 11:47:46;;;;;;;10.48;8.55;;;11.90;99.90;;;;;;5058464;28;20506;-70
2023/03/19 11:50:35;;;;;;;10.48;9.40;;;12.10;99.90;;;;;;5063505;28;20048;-70
2023/03/19 11:53:34;;;;;;;9.85;8.70;;;12.20;99.90;;;;;;5079859;28;20547;-70
2023/03/19 11:56:36;;;;;;;12.10;9.27;;;12.20;99.90;;;;;;5076110;28;20056;-69
2023/03/19 11:59:22;;;;;;;10.82;9.45;;;12.10;99.90;;;;;;5060403;28;20055;-69
2023/03/19 12:02:03;;;;;;;11.90;9.80;;;12.00;99.90;;;;;;5069228;28;20052;-70
2023/03/19 12:05:06;;;;;;;9.88;8.65;;;11.80;99.90;;;;;;5087893;28;20082;-70
2023/03/19 12:07:45;;;;;;;10.43;8.93;;;11.80;99.90;;;;;;5084063;28;20080;-70
2023/03/19 12:10:32;;;;;;;13.20;10.52;;;11.70;99.90;;;;;;5087238;28;20083;-69
2023/03/19 12:13:23;;;;;;;10.73;9.33;;;11.70;99.90;;;;;;5076221;28;20049;-70
2023/03/19 12:16:13;;;;;;;11.40;9.70;;;11.80;99.90;;;;;;5070822;28;20106;-71
2023/03/19 12:18:58;;;;;;;10.52;9.43;;;12.00;99.90;;;;;;5067095;28;20075;-70
2023/03/19 12:21:40;;;;;;;14.77;11.30;;;12.10;99.90;;;;;;5077847;28;20044;-70
2023/03/19 12:24:40;;;;;;;11.88;10.00;;;12.00;99.90;;;;;;5074063;28;20118;-70
2023/03/19 12:27:18;;;;;;;13.35;10.85;;;11.90;99.90;;;;;;5070677;28;20040;-71
2023/03/19 12:30:12;;;;;;;12.55;10.50;;;12.00;99.90;;;;;;5077396;28;20043;-69
2023/03/19 12:33:09;;;;;;;14.48;12.00;;;12.00;99.90;;;;;;5080952;28;20119;-71
2023/03/19 12:35:39;;;;;;;15.73;11.30;;;11.90;99.90;;;;;;5082057;28;20048;-69
2023/03/19 12:38:15;;;;;;;13.00;10.93;;;11.80;99.90;;;;;;5086565;28;20048;-70
2023/03/19 12:40:50;;;;;;;15.15;11.98;;;11.70;99.90;;;;;;5069768;28;20059;-70
2023/03/19 12:43:28;;;;;;;14.10;12.13;;;11.60;99.90;;;;;;5058535;28;20067;-68
2023/03/19 12:46:08;;;;;;;18.63;13.32;;;11.60;99.90;;;;;;5083394;28;20507;-70
2023/03/19 12:48:55;;;;;;;16.73;11.98;;;11.50;99.90;;;;;;5072715;28;20490;-70
2023/03/19 12:51:27;;;;;;;16.58;12.63;;;11.40;99.90;;;;;;5075416;28;20425;-69
2023/03/19 12:54:06;;;;;;;14.45;11.13;;;11.40;99.90;;;;;;5059510;28;20055;-69
2023/03/19 12:56:39;;;;;;;13.95;10.73;;;11.50;99.90;;;;;;5077231;28;20121;-67
2023/03/19 12:59:29;;;;;;;13.57;10.07;;;11.60;99.90;;;;;;5079782;28;20047;-68
2023/03/19 13:02:11;;;;;;;14.23;11.00;;;11.60;99.90;;;;;;5054499;28;20056;-68